sensor_id;sensor_type;location;lat;lon;timestamp;P1;durP1;ratioP1;P2;durP2;ratioP2
66487;SDS011;53304;54.550;18.526;2023-04-24T00:00:11;39.50;;;17.63;;
66487;SDS011;53304;54.550;18.526;2023-04-24T00:02:41;37.55;;;17.40;;
66487;SDS011;53304;54.550;18.526;2023-04-24T00:05:11;38.55;;;16.95;;
66487;SDS011;53304;54.550;18.526;2023-04-24T00:07:40;37.83;;;16.75;;
66487;SDS011;53304;54.550;18.526;2023-04-24T00:10:08;37.97;;;16.35;;
66487;SDS011;53304;54.550;18.526;2023-04-24T00:12:34;37.40;;;15.60;;
66487;SDS011;53304;54.550;18.526;2023-04-24T00:15:00;40.97;;;15.98;;
66487;SDS011;53304;54.550;18.526;2023-04-24T00:17:26;34.65;;;15.20;;
66487;SDS011;53304;54.550;18.526;2023-04-24T00:19:57;39.50;;;16.75;;
66487;SDS011;53304;54.550;18.526;2023-04-24T00:22:32;34.65;;;15.82;;
66487;SDS011;53304;54.550;18.526;2023-04-24T00:25:00;32.33;;;14.73;;
66487;SDS011;53304;54.550;18.526;2023-04-24T00:27:25;33.83;;;15.65;;
66487;SDS011;53304;54.550;18.526;2023-04-24T00:29:50;35.63;;;15.82;;
66487;SDS011;53304;54.550;18.526;2023-04-24T00:32:18;33.05;;;14.63;;
66487;SDS011;53304;54.550;18.526;2023-04-24T00:34:46;31.67;;;14.02;;
66487;SDS011;53304;54.550;18.526;2023-04-24T00:37:11;32.40;;;14.20;;
66487;SDS011;53304;54.550;18.526;2023-04-24T00:39:39;31.40;;;14.32;;
66487;SDS011;53304;54.550;18.526;2023-04-24T00:42:04;35.58;;;13.95;;
66487;SDS011;53304;54.550;18.526;2023-04-24T00:44:32;33.03;;;13.45;;
66487;SDS011;53304;54.550;18.526;2023-04-24T00:46:58;31.52;;;13.20;;
66487;SDS011;53304;54.550;18.526;2023-04-24T00:49:24;29.73;;;12.73;;
66487;SDS011;53304;54.550;18.526;2023-04-24T00:51:54;32.30;;;13.75;;
66487;SDS011;53304;54.550;18.526;2023-04-24T00:54:20;29.80;;;12.88;;
66487;SDS011;53304;54.550;18.526;2023-04-24T00:56:47;32.70;;;13.15;;
66487;SDS011;53304;54.550;18.526;2023-04-24T00:59:14;29.30;;;12.88;;
66487;SDS011;53304;54.550;18.526;2023-04-24T01:01:50;30.58;;;12.77;;
66487;SDS011;53304;54.550;18.526;2023-04-24T01:04:18;26.02;;;12.02;;
66487;SDS011;53304;54.550;18.526;2023-04-24T01:06:43;25.95;;;11.80;;
66487;SDS011;53304;54.550;18.526;2023-04-24T01:09:10;25.83;;;11.18;;
66487;SDS011;53304;54.550;18.526;2023-04-24T01:11:40;26.70;;;11.38;;
66487;SDS011;53304;54.550;18.526;2023-04-24T01:14:08;26.02;;;11.63;;
66487;SDS011;53304;54.550;18.526;2023-04-24T01:16:37;28.15;;;11.77;;
66487;SDS011;53304;54.550;18.526;2023-04-24T01:19:03;25.58;;;11.57;;
66487;SDS011;53304;54.550;18.526;2023-04-24T01:21:29;23.17;;;10.85;;
66487;SDS011;53304;54.550;18.526;2023-04-24T01:23:55;22.50;;;10.70;;
66487;SDS011;53304;54.550;18.526;2023-04-24T01:26:26;24.92;;;11.05;;
66487;SDS011;53304;54.550;18.526;2023-04-24T01:28:51;25.50;;;10.40;;
66487;SDS011;53304;54.550;18.526;2023-04-24T01:31:17;27.80;;;11.30;;
66487;SDS011;53304;54.550;18.526;2023-04-24T01:33:43;24.17;;;10.60;;
66487;SDS011;53304;54.550;18.526;2023-04-24T01:36:09;24.20;;;10.50;;
66487;SDS011;53304;54.550;18.526;2023-04-24T01:38:38;21.83;;;10.60;;
66487;SDS011;53304;54.550;18.526;2023-04-24T01:41:06;23.02;;;10.00;;
66487;SDS011;53304;54.550;18.526;2023-04-24T01:43:31;21.77;;;10.02;;
66487;SDS011;53304;54.550;18.526;2023-04-24T01:45:57;23.02;;;9.98;;
66487;SDS011;53304;54.550;18.526;2023-04-24T01:48:25;21.25;;;9.55;;
66487;SDS011;53304;54.550;18.526;2023-04-24T01:50:50;21.88;;;10.35;;
66487;SDS011;53304;54.550;18.526;2023-04-24T01:53:16;22.90;;;10.20;;
66487;SDS011;53304;54.550;18.526;2023-04-24T01:55:41;22.05;;;9.77;;
66487;SDS011;53304;54.550;18.526;2023-04-24T01:58:06;18.60;;;9.48;;
66487;SDS011;53304;54.550;18.526;2023-04-24T02:00:37;21.95;;;9.50;;
66487;SDS011;53304;54.550;18.526;2023-04-24T02:03:04;21.63;;;9.55;;
66487;SDS011;53304;54.550;18.526;2023-04-24T02:05:34;20.90;;;9.13;;
66487;SDS011;53304;54.550;18.526;2023-04-24T02:08:00;17.67;;;8.95;;
66487;SDS011;53304;54.550;18.526;2023-04-24T02:10:28;19.98;;;9.30;;
66487;SDS011;53304;54.550;18.526;2023-04-24T02:12:56;17.90;;;8.73;;
66487;SDS011;53304;54.550;18.526;2023-04-24T02:15:24;18.55;;;9.05;;
66487;SDS011;53304;54.550;18.526;2023-04-24T02:17:50;20.48;;;9.77;;
66487;SDS011;53304;54.550;18.526;2023-04-24T02:20:15;17.67;;;8.80;;
66487;SDS011;53304;54.550;18.526;2023-04-24T02:22:40;18.45;;;8.60;;
66487;SDS011;53304;54.550;18.526;2023-04-24T02:25:06;17.85;;;8.85;;
66487;SDS011;53304;54.550;18.526;2023-04-24T02:27:32;19.23;;;8.55;;
66487;SDS011;53304;54.550;18.526;2023-04-24T02:29:58;19.38;;;8.18;;
66487;SDS011;53304;54.550;18.526;2023-04-24T02:32:23;16.35;;;8.20;;
66487;SDS011;53304;54.550;18.526;2023-04-24T02:34:49;16.63;;;8.15;;
66487;SDS011;53304;54.550;18.526;2023-04-24T02:37:14;16.00;;;7.82;;
66487;SDS011;53304;54.550;18.526;2023-04-24T02:39:40;17.45;;;8.02;;
66487;SDS011;53304;54.550;18.526;2023-04-24T02:42:08;15.90;;;7.78;;
66487;SDS011;53304;54.550;18.526;2023-04-24T02:44:38;16.67;;;8.30;;
66487;SDS011;53304;54.550;18.526;2023-04-24T02:47:03;16.52;;;7.63;;
66487;SDS011;53304;54.550;18.526;2023-04-24T02:49:31;16.88;;;7.70;;
66487;SDS011;53304;54.550;18.526;2023-04-24T02:52:01;16.02;;;7.38;;
66487;SDS011;53304;54.550;18.526;2023-04-24T02:54:29;15.85;;;7.95;;
66487;SDS011;53304;54.550;18.526;2023-04-24T02:56:57;16.95;;;7.45;;
66487;SDS011;53304;54.550;18.526;2023-04-24T02:59:26;13.27;;;6.78;;
66487;SDS011;53304;54.550;18.526;2023-04-24T03:01:52;15.85;;;6.80;;
66487;SDS011;53304;54.550;18.526;2023-04-24T03:04:20;15.05;;;6.75;;
66487;SDS011;53304;54.550;18.526;2023-04-24T03:06:48;15.23;;;6.47;;
66487;SDS011;53304;54.550;18.526;2023-04-24T03:09:16;13.90;;;6.35;;
66487;SDS011;53304;54.550;18.526;2023-04-24T03:11:42;13.80;;;6.43;;
66487;SDS011;53304;54.550;18.526;2023-04-24T03:14:12;14.40;;;6.85;;
66487;SDS011;53304;54.550;18.526;2023-04-24T03:16:40;15.43;;;6.57;;
66487;SDS011;53304;54.550;18.526;2023-04-24T03:19:07;15.07;;;7.10;;
66487;SDS011;53304;54.550;18.526;2023-04-24T03:21:33;13.00;;;6.05;;
66487;SDS011;53304;54.550;18.526;2023-04-24T03:24:01;14.60;;;6.43;;
66487;SDS011;53304;54.550;18.526;2023-04-24T03:26:31;14.18;;;6.45;;
66487;SDS011;53304;54.550;18.526;2023-04-24T03:28:56;13.82;;;5.78;;
66487;SDS011;53304;54.550;18.526;2023-04-24T03:31:24;12.05;;;5.82;;
66487;SDS011;53304;54.550;18.526;2023-04-24T03:33:50;13.80;;;6.13;;
66487;SDS011;53304;54.550;18.526;2023-04-24T03:36:16;14.07;;;6.28;;
66487;SDS011;53304;54.550;18.526;2023-04-24T03:38:44;12.57;;;5.70;;
66487;SDS011;53304;54.550;18.526;2023-04-24T03:41:10;10.35;;;5.78;;
66487;SDS011;53304;54.550;18.526;2023-04-24T03:43:35;13.85;;;5.72;;
66487;SDS011;53304;54.550;18.526;2023-04-24T03:46:03;13.48;;;6.28;;
66487;SDS011;53304;54.550;18.526;2023-04-24T03:48:29;11.50;;;5.93;;
66487;SDS011;53304;54.550;18.526;2023-04-24T03:50:57;14.80;;;6.35;;
66487;SDS011;53304;54.550;18.526;2023-04-24T03:53:24;12.52;;;5.90;;
66487;SDS011;53304;54.550;18.526;2023-04-24T03:55:52;12.90;;;5.68;;
66487;SDS011;53304;54.550;18.526;2023-04-24T03:58:18;11.93;;;5.45;;
66487;SDS011;53304;54.550;18.526;2023-04-24T04:00:51;13.10;;;5.78;;
66487;SDS011;53304;54.550;18.526;2023-04-24T04:03:16;14.40;;;5.88;;
66487;SDS011;53304;54.550;18.526;2023-04-24T04:05:44;11.18;;;5.20;;
66487;SDS011;53304;54.550;18.526;2023-04-24T04:08:10;10.63;;;5.38;;
66487;SDS011;53304;54.550;18.526;2023-04-24T04:10:37;11.77;;;4.78;;
66487;SDS011;53304;54.550;18.526;2023-04-24T04:13:10;11.02;;;5.40;;
66487;SDS011;53304;54.550;18.526;2023-04-24T04:15:35;11.40;;;5.28;;
66487;SDS011;53304;54.550;18.526;2023-04-24T04:18:03;9.50;;;4.80;;
66487;SDS011;53304;54.550;18.526;2023-04-24T04:20:31;9.70;;;4.97;;
66487;SDS011;53304;54.550;18.526;2023-04-24T04:23:01;15.30;;;5.50;;
66487;SDS011;53304;54.550;18.526;2023-04-24T04:25:27;10.85;;;5.18;;
66487;SDS011;53304;54.550;18.526;2023-04-24T04:27:54;11.10;;;4.68;;
66487;SDS011;53304;54.550;18.526;2023-04-24T04:30:27;12.50;;;5.53;;
66487;SDS011;53304;54.550;18.526;2023-04-24T04:32:56;10.45;;;4.47;;
66487;SDS011;53304;54.550;18.526;2023-04-24T04:35:22;12.02;;;4.88;;
66487;SDS011;53304;54.550;18.526;2023-04-24T04:37:50;15.20;;;5.47;;
66487;SDS011;53304;54.550;18.526;2023-04-24T04:40:17;9.40;;;4.85;;
66487;SDS011;53304;54.550;18.526;2023-04-24T04:42:43;11.35;;;4.90;;
66487;SDS011;53304;54.550;18.526;2023-04-24T04:45:11;11.55;;;5.65;;
66487;SDS011;53304;54.550;18.526;2023-04-24T04:47:41;12.30;;;4.93;;
66487;SDS011;53304;54.550;18.526;2023-04-24T04:50:07;12.07;;;5.18;;
66487;SDS011;53304;54.550;18.526;2023-04-24T04:52:35;11.30;;;4.75;;
66487;SDS011;53304;54.550;18.526;2023-04-24T04:55:01;9.98;;;4.57;;
66487;SDS011;53304;54.550;18.526;2023-04-24T04:57:26;11.35;;;4.80;;
66487;SDS011;53304;54.550;18.526;2023-04-24T04:59:52;10.35;;;4.80;;
66487;SDS011;53304;54.550;18.526;2023-04-24T05:02:17;11.95;;;4.65;;
66487;SDS011;53304;54.550;18.526;2023-04-24T05:04:45;9.65;;;4.72;;
66487;SDS011;53304;54.550;18.526;2023-04-24T05:07:11;12.73;;;5.00;;
66487;SDS011;53304;54.550;18.526;2023-04-24T05:09:36;10.40;;;5.18;;
66487;SDS011;53304;54.550;18.526;2023-04-24T05:12:02;11.57;;;4.55;;
66487;SDS011;53304;54.550;18.526;2023-04-24T05:14:30;10.05;;;4.43;;
66487;SDS011;53304;54.550;18.526;2023-04-24T05:17:00;9.90;;;4.50;;
66487;SDS011;53304;54.550;18.526;2023-04-24T05:19:28;15.48;;;4.93;;
66487;SDS011;53304;54.550;18.526;2023-04-24T05:21:54;13.55;;;4.57;;
66487;SDS011;53304;54.550;18.526;2023-04-24T05:24:22;11.80;;;4.82;;
66487;SDS011;53304;54.550;18.526;2023-04-24T05:26:47;10.15;;;4.60;;
66487;SDS011;53304;54.550;18.526;2023-04-24T05:29:12;12.75;;;4.68;;
66487;SDS011;53304;54.550;18.526;2023-04-24T05:31:38;118.38;;;40.15;;
66487;SDS011;53304;54.550;18.526;2023-04-24T05:34:06;310.35;;;109.25;;
66487;SDS011;53304;54.550;18.526;2023-04-24T05:36:31;164.57;;;64.43;;
66487;SDS011;53304;54.550;18.526;2023-04-24T05:38:59;437.17;;;159.13;;
66487;SDS011;53304;54.550;18.526;2023-04-24T05:41:25;384.40;;;138.55;;
66487;SDS011;53304;54.550;18.526;2023-04-24T05:43:50;352.95;;;128.77;;
66487;SDS011;53304;54.550;18.526;2023-04-24T05:46:16;327.70;;;121.00;;
66487;SDS011;53304;54.550;18.526;2023-04-24T05:48:41;267.33;;;100.80;;
66487;SDS011;53304;54.550;18.526;2023-04-24T05:51:09;303.17;;;110.35;;
66487;SDS011;53304;54.550;18.526;2023-04-24T05:53:35;218.98;;;80.43;;
66487;SDS011;53304;54.550;18.526;2023-04-24T05:56:02;226.65;;;82.07;;
66487;SDS011;53304;54.550;18.526;2023-04-24T05:58:28;181.85;;;67.07;;
66487;SDS011;53304;54.550;18.526;2023-04-24T06:00:56;157.38;;;56.03;;
66487;SDS011;53304;54.550;18.526;2023-04-24T06:03:26;130.55;;;43.95;;
66487;SDS011;53304;54.550;18.526;2023-04-24T06:05:53;119.55;;;42.13;;
66487;SDS011;53304;54.550;18.526;2023-04-24T06:08:19;111.05;;;39.40;;
66487;SDS011;53304;54.550;18.526;2023-04-24T06:10:44;111.10;;;37.83;;
66487;SDS011;53304;54.550;18.526;2023-04-24T06:13:12;109.90;;;37.90;;
66487;SDS011;53304;54.550;18.526;2023-04-24T06:15:39;86.63;;;31.75;;
66487;SDS011;53304;54.550;18.526;2023-04-24T06:18:07;88.32;;;31.92;;
66487;SDS011;53304;54.550;18.526;2023-04-24T06:20:35;75.65;;;28.48;;
66487;SDS011;53304;54.550;18.526;2023-04-24T06:23:02;83.32;;;29.60;;
66487;SDS011;53304;54.550;18.526;2023-04-24T06:25:28;73.63;;;27.42;;
66487;SDS011;53304;54.550;18.526;2023-04-24T06:27:53;60.90;;;22.80;;
66487;SDS011;53304;54.550;18.526;2023-04-24T06:30:22;54.97;;;19.92;;
66487;SDS011;53304;54.550;18.526;2023-04-24T06:32:48;69.30;;;24.35;;
66487;SDS011;53304;54.550;18.526;2023-04-24T06:35:15;58.67;;;20.10;;
66487;SDS011;53304;54.550;18.526;2023-04-24T06:37:43;52.67;;;19.02;;
66487;SDS011;53304;54.550;18.526;2023-04-24T06:40:11;41.17;;;16.83;;
66487;SDS011;53304;54.550;18.526;2023-04-24T06:42:36;46.58;;;18.67;;
66487;SDS011;53304;54.550;18.526;2023-04-24T06:45:02;47.33;;;17.85;;
66487;SDS011;53304;54.550;18.526;2023-04-24T06:47:30;39.22;;;15.60;;
66487;SDS011;53304;54.550;18.526;2023-04-24T06:49:56;36.67;;;14.93;;
66487;SDS011;53304;54.550;18.526;2023-04-24T06:52:22;29.52;;;13.80;;
66487;SDS011;53304;54.550;18.526;2023-04-24T06:54:50;34.70;;;13.35;;
66487;SDS011;53304;54.550;18.526;2023-04-24T06:57:18;29.52;;;11.43;;
66487;SDS011;53304;54.550;18.526;2023-04-24T06:59:49;28.45;;;11.43;;
66487;SDS011;53304;54.550;18.526;2023-04-24T07:02:16;22.25;;;10.40;;
66487;SDS011;53304;54.550;18.526;2023-04-24T07:04:42;24.20;;;10.30;;
66487;SDS011;53304;54.550;18.526;2023-04-24T07:07:11;20.48;;;8.80;;
66487;SDS011;53304;54.550;18.526;2023-04-24T07:09:39;19.83;;;9.27;;
66487;SDS011;53304;54.550;18.526;2023-04-24T07:12:07;22.27;;;9.50;;
66487;SDS011;53304;54.550;18.526;2023-04-24T07:14:33;19.77;;;8.38;;
66487;SDS011;53304;54.550;18.526;2023-04-24T07:17:05;16.35;;;7.28;;
66487;SDS011;53304;54.550;18.526;2023-04-24T07:19:39;19.23;;;7.47;;
66487;SDS011;53304;54.550;18.526;2023-04-24T07:22:04;18.75;;;7.82;;
66487;SDS011;53304;54.550;18.526;2023-04-24T07:24:30;15.45;;;7.05;;
66487;SDS011;53304;54.550;18.526;2023-04-24T07:26:57;13.38;;;6.93;;
66487;SDS011;53304;54.550;18.526;2023-04-24T07:29:26;16.05;;;7.22;;
66487;SDS011;53304;54.550;18.526;2023-04-24T07:31:56;13.13;;;5.72;;
66487;SDS011;53304;54.550;18.526;2023-04-24T07:34:24;14.63;;;5.88;;
66487;SDS011;53304;54.550;18.526;2023-04-24T07:36:49;14.60;;;7.03;;
66487;SDS011;53304;54.550;18.526;2023-04-24T07:39:15;12.73;;;6.25;;
66487;SDS011;53304;54.550;18.526;2023-04-24T07:41:43;12.98;;;5.72;;
66487;SDS011;53304;54.550;18.526;2023-04-24T07:44:08;14.50;;;5.93;;
66487;SDS011;53304;54.550;18.526;2023-04-24T07:46:34;13.23;;;5.45;;
66487;SDS011;53304;54.550;18.526;2023-04-24T07:49:01;11.82;;;5.55;;
66487;SDS011;53304;54.550;18.526;2023-04-24T07:51:29;12.90;;;5.30;;
66487;SDS011;53304;54.550;18.526;2023-04-24T07:53:55;12.60;;;5.43;;
66487;SDS011;53304;54.550;18.526;2023-04-24T07:56:23;15.70;;;5.20;;
66487;SDS011;53304;54.550;18.526;2023-04-24T07:58:51;12.57;;;5.25;;
66487;SDS011;53304;54.550;18.526;2023-04-24T08:01:17;12.77;;;4.97;;
66487;SDS011;53304;54.550;18.526;2023-04-24T08:03:42;10.10;;;5.18;;
66487;SDS011;53304;54.550;18.526;2023-04-24T08:06:10;13.38;;;4.38;;
66487;SDS011;53304;54.550;18.526;2023-04-24T08:08:36;8.48;;;3.72;;
66487;SDS011;53304;54.550;18.526;2023-04-24T08:11:02;11.05;;;4.60;;
66487;SDS011;53304;54.550;18.526;2023-04-24T08:13:27;9.65;;;4.40;;
66487;SDS011;53304;54.550;18.526;2023-04-24T08:15:57;11.15;;;4.38;;
66487;SDS011;53304;54.550;18.526;2023-04-24T08:18:27;9.57;;;4.00;;
66487;SDS011;53304;54.550;18.526;2023-04-24T08:20:53;7.65;;;3.55;;
66487;SDS011;53304;54.550;18.526;2023-04-24T08:23:18;8.93;;;3.80;;
66487;SDS011;53304;54.550;18.526;2023-04-24T08:25:44;14.98;;;4.13;;
66487;SDS011;53304;54.550;18.526;2023-04-24T08:28:11;7.97;;;3.70;;
66487;SDS011;53304;54.550;18.526;2023-04-24T08:30:47;9.02;;;3.78;;
66487;SDS011;53304;54.550;18.526;2023-04-24T08:33:13;10.10;;;4.07;;
66487;SDS011;53304;54.550;18.526;2023-04-24T08:35:39;8.15;;;3.90;;
66487;SDS011;53304;54.550;18.526;2023-04-24T08:38:05;10.98;;;3.85;;
66487;SDS011;53304;54.550;18.526;2023-04-24T08:40:30;9.30;;;3.88;;
66487;SDS011;53304;54.550;18.526;2023-04-24T08:43:04;10.70;;;4.03;;
66487;SDS011;53304;54.550;18.526;2023-04-24T08:45:29;8.50;;;3.95;;
66487;SDS011;53304;54.550;18.526;2023-04-24T08:47:55;8.20;;;4.22;;
66487;SDS011;53304;54.550;18.526;2023-04-24T08:50:22;8.85;;;4.30;;
66487;SDS011;53304;54.550;18.526;2023-04-24T08:52:54;10.05;;;4.20;;
66487;SDS011;53304;54.550;18.526;2023-04-24T08:55:20;10.45;;;4.22;;
66487;SDS011;53304;54.550;18.526;2023-04-24T08:57:53;9.88;;;4.03;;
66487;SDS011;53304;54.550;18.526;2023-04-24T09:00:24;8.02;;;3.55;;
66487;SDS011;53304;54.550;18.526;2023-04-24T09:02:50;10.18;;;4.13;;
66487;SDS011;53304;54.550;18.526;2023-04-24T09:05:18;7.32;;;3.60;;
66487;SDS011;53304;54.550;18.526;2023-04-24T09:07:54;8.60;;;3.90;;
66487;SDS011;53304;54.550;18.526;2023-04-24T09:10:25;10.02;;;4.43;;
66487;SDS011;53304;54.550;18.526;2023-04-24T09:12:57;10.93;;;4.00;;
66487;SDS011;53304;54.550;18.526;2023-04-24T09:15:24;10.63;;;4.57;;
66487;SDS011;53304;54.550;18.526;2023-04-24T09:17:49;8.45;;;3.70;;
66487;SDS011;53304;54.550;18.526;2023-04-24T09:20:15;9.75;;;4.20;;
66487;SDS011;53304;54.550;18.526;2023-04-24T09:22:45;8.52;;;3.85;;
66487;SDS011;53304;54.550;18.526;2023-04-24T09:25:10;11.55;;;4.13;;
66487;SDS011;53304;54.550;18.526;2023-04-24T09:27:41;9.30;;;4.00;;
66487;SDS011;53304;54.550;18.526;2023-04-24T09:30:11;9.30;;;3.75;;
66487;SDS011;53304;54.550;18.526;2023-04-24T09:32:37;8.73;;;3.50;;
66487;SDS011;53304;54.550;18.526;2023-04-24T09:35:10;7.63;;;3.50;;
66487;SDS011;53304;54.550;18.526;2023-04-24T09:37:46;10.25;;;3.97;;
66487;SDS011;53304;54.550;18.526;2023-04-24T09:40:22;8.93;;;4.07;;
66487;SDS011;53304;54.550;18.526;2023-04-24T09:42:54;10.13;;;4.07;;
66487;SDS011;53304;54.550;18.526;2023-04-24T09:45:22;7.03;;;3.47;;
66487;SDS011;53304;54.550;18.526;2023-04-24T09:47:51;8.50;;;3.53;;
66487;SDS011;53304;54.550;18.526;2023-04-24T09:50:20;8.25;;;3.58;;
66487;SDS011;53304;54.550;18.526;2023-04-24T09:52:55;8.77;;;3.47;;
66487;SDS011;53304;54.550;18.526;2023-04-24T09:55:24;7.57;;;3.65;;
66487;SDS011;53304;54.550;18.526;2023-04-24T09:57:54;7.03;;;3.47;;
66487;SDS011;53304;54.550;18.526;2023-04-24T10:00:24;8.95;;;4.00;;
66487;SDS011;53304;54.550;18.526;2023-04-24T10:03:01;8.13;;;3.28;;
66487;SDS011;53304;54.550;18.526;2023-04-24T10:05:29;8.68;;;3.78;;
66487;SDS011;53304;54.550;18.526;2023-04-24T10:10:28;7.75;;;3.70;;
66487;SDS011;53304;54.550;18.526;2023-04-24T10:12:56;6.93;;;3.45;;
66487;SDS011;53304;54.550;18.526;2023-04-24T10:15:22;7.22;;;3.50;;
66487;SDS011;53304;54.550;18.526;2023-04-24T10:17:50;8.40;;;3.50;;
66487;SDS011;53304;54.550;18.526;2023-04-24T10:20:22;7.78;;;3.13;;
66487;SDS011;53304;54.550;18.526;2023-04-24T10:22:49;8.93;;;3.65;;
66487;SDS011;53304;54.550;18.526;2023-04-24T10:25:20;6.35;;;3.60;;
66487;SDS011;53304;54.550;18.526;2023-04-24T10:27:48;10.52;;;3.95;;
66487;SDS011;53304;54.550;18.526;2023-04-24T10:30:14;8.88;;;3.83;;
66487;SDS011;53304;54.550;18.526;2023-04-24T10:32:42;8.10;;;3.95;;
66487;SDS011;53304;54.550;18.526;2023-04-24T10:35:08;9.05;;;3.65;;
66487;SDS011;53304;54.550;18.526;2023-04-24T10:37:35;7.57;;;3.65;;
66487;SDS011;53304;54.550;18.526;2023-04-24T10:40:03;7.65;;;3.50;;
66487;SDS011;53304;54.550;18.526;2023-04-24T10:42:29;8.52;;;3.38;;
66487;SDS011;53304;54.550;18.526;2023-04-24T10:44:54;7.45;;;3.38;;
66487;SDS011;53304;54.550;18.526;2023-04-24T10:47:21;8.43;;;3.60;;
66487;SDS011;53304;54.550;18.526;2023-04-24T10:49:49;7.70;;;3.53;;
66487;SDS011;53304;54.550;18.526;2023-04-24T10:52:15;9.07;;;3.90;;
66487;SDS011;53304;54.550;18.526;2023-04-24T10:54:45;8.20;;;3.88;;
66487;SDS011;53304;54.550;18.526;2023-04-24T10:59:45;7.32;;;3.58;;
66487;SDS011;53304;54.550;18.526;2023-04-24T11:02:16;7.25;;;3.65;;
66487;SDS011;53304;54.550;18.526;2023-04-24T11:04:45;7.22;;;3.67;;
66487;SDS011;53304;54.550;18.526;2023-04-24T11:07:15;6.95;;;3.28;;
66487;SDS011;53304;54.550;18.526;2023-04-24T11:09:47;8.80;;;3.78;;
66487;SDS011;53304;54.550;18.526;2023-04-24T11:12:23;8.45;;;3.80;;
66487;SDS011;53304;54.550;18.526;2023-04-24T11:17:43;7.47;;;3.40;;
66487;SDS011;53304;54.550;18.526;2023-04-24T11:20:11;8.15;;;3.40;;
66487;SDS011;53304;54.550;18.526;2023-04-24T11:22:41;6.80;;;3.20;;
66487;SDS011;53304;54.550;18.526;2023-04-24T11:25:06;6.05;;;3.08;;
66487;SDS011;53304;54.550;18.526;2023-04-24T11:27:43;6.93;;;3.10;;
66487;SDS011;53304;54.550;18.526;2023-04-24T11:30:13;6.13;;;2.70;;
66487;SDS011;53304;54.550;18.526;2023-04-24T11:32:47;6.25;;;3.60;;
66487;SDS011;53304;54.550;18.526;2023-04-24T11:35:23;6.15;;;3.20;;
66487;SDS011;53304;54.550;18.526;2023-04-24T11:37:50;7.68;;;3.38;;
66487;SDS011;53304;54.550;18.526;2023-04-24T11:40:20;7.00;;;3.17;;
66487;SDS011;53304;54.550;18.526;2023-04-24T11:42:48;9.88;;;3.65;;
66487;SDS011;53304;54.550;18.526;2023-04-24T11:45:22;9.10;;;3.60;;
66487;SDS011;53304;54.550;18.526;2023-04-24T11:47:51;12.73;;;3.55;;
66487;SDS011;53304;54.550;18.526;2023-04-24T11:50:17;8.98;;;3.40;;
66487;SDS011;53304;54.550;18.526;2023-04-24T11:52:49;6.28;;;3.22;;
66487;SDS011;53304;54.550;18.526;2023-04-24T11:57:44;8.25;;;3.47;;
66487;SDS011;53304;54.550;18.526;2023-04-24T12:00:17;7.22;;;3.22;;
66487;SDS011;53304;54.550;18.526;2023-04-24T12:02:49;6.78;;;3.17;;
66487;SDS011;53304;54.550;18.526;2023-04-24T12:05:22;9.23;;;3.80;;
66487;SDS011;53304;54.550;18.526;2023-04-24T12:07:50;6.75;;;3.05;;
66487;SDS011;53304;54.550;18.526;2023-04-24T12:10:23;7.78;;;3.25;;
66487;SDS011;53304;54.550;18.526;2023-04-24T12:12:50;5.88;;;3.10;;
66487;SDS011;53304;54.550;18.526;2023-04-24T12:15:19;9.18;;;3.70;;
66487;SDS011;53304;54.550;18.526;2023-04-24T12:17:45;7.88;;;3.30;;
66487;SDS011;53304;54.550;18.526;2023-04-24T12:20:11;6.38;;;3.05;;
66487;SDS011;53304;54.550;18.526;2023-04-24T12:22:44;6.50;;;3.28;;
66487;SDS011;53304;54.550;18.526;2023-04-24T12:25:20;10.68;;;2.95;;
66487;SDS011;53304;54.550;18.526;2023-04-24T12:27:53;8.25;;;2.95;;
66487;SDS011;53304;54.550;18.526;2023-04-24T12:30:39;6.82;;;3.17;;
66487;SDS011;53304;54.550;18.526;2023-04-24T12:33:09;6.15;;;3.20;;
66487;SDS011;53304;54.550;18.526;2023-04-24T12:35:35;6.70;;;3.28;;
66487;SDS011;53304;54.550;18.526;2023-04-24T12:38:06;7.10;;;3.20;;
66487;SDS011;53304;54.550;18.526;2023-04-24T12:40:33;7.28;;;3.00;;
66487;SDS011;53304;54.550;18.526;2023-04-24T12:43:00;6.38;;;3.10;;
66487;SDS011;53304;54.550;18.526;2023-04-24T12:45:26;5.47;;;2.90;;
66487;SDS011;53304;54.550;18.526;2023-04-24T12:47:53;6.20;;;3.22;;
66487;SDS011;53304;54.550;18.526;2023-04-24T12:50:19;6.13;;;3.00;;
66487;SDS011;53304;54.550;18.526;2023-04-24T12:52:45;5.55;;;2.90;;
66487;SDS011;53304;54.550;18.526;2023-04-24T12:55:15;6.13;;;3.00;;
66487;SDS011;53304;54.550;18.526;2023-04-24T12:57:40;7.10;;;3.13;;
66487;SDS011;53304;54.550;18.526;2023-04-24T13:00:08;6.68;;;3.40;;
66487;SDS011;53304;54.550;18.526;2023-04-24T13:02:39;6.32;;;3.10;;
66487;SDS011;53304;54.550;18.526;2023-04-24T13:05:06;6.85;;;3.03;;
66487;SDS011;53304;54.550;18.526;2023-04-24T13:07:38;5.90;;;3.17;;
66487;SDS011;53304;54.550;18.526;2023-04-24T13:10:09;5.10;;;2.60;;
66487;SDS011;53304;54.550;18.526;2023-04-24T13:12:39;6.22;;;2.90;;
66487;SDS011;53304;54.550;18.526;2023-04-24T13:15:07;5.55;;;3.00;;
66487;SDS011;53304;54.550;18.526;2023-04-24T13:17:33;5.40;;;2.67;;
66487;SDS011;53304;54.550;18.526;2023-04-24T13:20:01;5.50;;;2.90;;
66487;SDS011;53304;54.550;18.526;2023-04-24T13:22:26;5.53;;;3.00;;
66487;SDS011;53304;54.550;18.526;2023-04-24T13:24:52;6.60;;;2.80;;
66487;SDS011;53304;54.550;18.526;2023-04-24T13:27:20;5.38;;;2.75;;
66487;SDS011;53304;54.550;18.526;2023-04-24T13:29:45;5.07;;;2.85;;
66487;SDS011;53304;54.550;18.526;2023-04-24T13:32:13;6.60;;;3.10;;
66487;SDS011;53304;54.550;18.526;2023-04-24T13:34:39;6.47;;;2.90;;
66487;SDS011;53304;54.550;18.526;2023-04-24T13:37:04;6.10;;;2.75;;
66487;SDS011;53304;54.550;18.526;2023-04-24T13:39:30;5.15;;;2.70;;
66487;SDS011;53304;54.550;18.526;2023-04-24T13:41:58;6.07;;;3.10;;
66487;SDS011;53304;54.550;18.526;2023-04-24T13:44:26;5.95;;;3.10;;
66487;SDS011;53304;54.550;18.526;2023-04-24T13:46:54;5.45;;;2.88;;
66487;SDS011;53304;54.550;18.526;2023-04-24T13:49:23;4.70;;;2.50;;
66487;SDS011;53304;54.550;18.526;2023-04-24T13:51:55;5.68;;;2.92;;
66487;SDS011;53304;54.550;18.526;2023-04-24T13:54:22;5.88;;;2.60;;
66487;SDS011;53304;54.550;18.526;2023-04-24T13:56:50;5.45;;;2.83;;
66487;SDS011;53304;54.550;18.526;2023-04-24T13:59:22;6.03;;;2.97;;
66487;SDS011;53304;54.550;18.526;2023-04-24T14:01:47;5.65;;;2.70;;
66487;SDS011;53304;54.550;18.526;2023-04-24T14:04:15;4.70;;;2.60;;
66487;SDS011;53304;54.550;18.526;2023-04-24T14:06:43;4.70;;;2.60;;
66487;SDS011;53304;54.550;18.526;2023-04-24T14:09:11;5.10;;;2.60;;
66487;SDS011;53304;54.550;18.526;2023-04-24T14:11:38;5.53;;;2.70;;
66487;SDS011;53304;54.550;18.526;2023-04-24T14:14:06;4.90;;;2.78;;
66487;SDS011;53304;54.550;18.526;2023-04-24T14:16:32;6.22;;;2.75;;
66487;SDS011;53304;54.550;18.526;2023-04-24T14:19:03;6.90;;;2.95;;
66487;SDS011;53304;54.550;18.526;2023-04-24T14:21:29;4.72;;;2.42;;
66487;SDS011;53304;54.550;18.526;2023-04-24T14:23:55;7.10;;;2.67;;
66487;SDS011;53304;54.550;18.526;2023-04-24T14:26:23;5.25;;;2.70;;
66487;SDS011;53304;54.550;18.526;2023-04-24T14:28:53;10.23;;;2.75;;
66487;SDS011;53304;54.550;18.526;2023-04-24T14:31:21;11.45;;;3.03;;
66487;SDS011;53304;54.550;18.526;2023-04-24T14:33:46;12.30;;;3.05;;
66487;SDS011;53304;54.550;18.526;2023-04-24T14:36:17;9.85;;;3.13;;